createdAt,value
2018-12-01T00:00:43.915Z,97339.96
2018-12-01T00:03:13.725Z,97336.52
2018-12-01T00:05:58.509Z,97338.15
2018-12-01T00:08:28.333Z,97328.09
2018-12-01T00:10:58.028Z,97325.31
2018-12-01T00:13:27.777Z,97334.41
2018-12-01T00:15:57.588Z,97337.20
2018-12-01T00:18:27.402Z,97340.08
2018-12-01T00:20:57.301Z,97343.30
2018-12-01T00:23:26.932Z,97352.09
2018-12-01T00:25:56.562Z,97346.95
2018-12-01T00:28:26.546Z,97348.61
2018-12-01T00:30:56.246Z,97342.22
2018-12-01T00:33:26.053Z,97342.02
2018-12-01T00:35:55.738Z,97343.00
2018-12-01T00:38:25.537Z,97345.72
2018-12-01T00:40:55.225Z,97343.70
2018-12-01T00:43:24.963Z,97348.44
2018-12-01T00:45:54.713Z,97347.56
2018-12-01T00:48:24.483Z,97343.32
2018-12-01T00:50:54.333Z,97349.75
2018-12-01T00:53:24.102Z,97343.01
2018-12-01T00:55:53.963Z,97346.59
2018-12-01T00:58:23.769Z,97352.30
2018-12-01T01:00:53.528Z,97344.48
2018-12-01T01:03:23.391Z,97354.82
2018-12-01T01:05:53.202Z,97351.63
2018-12-01T01:08:22.983Z,97349.44
2018-12-01T01:10:52.830Z,97354.19
2018-12-01T01:13:22.540Z,97349.67
2018-12-01T01:15:52.351Z,97344.33
2018-12-01T01:18:21.858Z,97329.20
2018-12-01T01:20:51.663Z,97334.58
2018-12-01T01:23:21.471Z,97331.05
2018-12-01T01:25:51.241Z,97325.99
2018-12-01T01:28:21.020Z,97329.30
2018-12-01T01:30:50.802Z,97317.96
2018-12-01T01:33:31.497Z,97318.45
2018-12-01T01:36:01.568Z,97310.05
2018-12-01T01:38:31.479Z,97306.55
2018-12-01T01:41:06.172Z,97311.42
2018-12-01T01:43:36.517Z,97302.69
2018-12-01T01:46:06.331Z,97291.42
2018-12-01T01:48:37.057Z,97298.72
2018-12-01T01:51:07.119Z,97291.53
2018-12-01T01:53:36.869Z,97281.65
2018-12-01T01:56:06.817Z,97283.25
2018-12-01T01:58:36.565Z,97282.16
2018-12-01T02:01:06.642Z,97283.09
2018-12-01T02:03:36.387Z,97276.09
2018-12-01T02:06:06.505Z,97286.94
2018-12-01T02:08:36.425Z,97287.98
2018-12-01T02:11:06.510Z,97273.06
2018-12-01T02:13:36.219Z,97275.77
2018-12-01T02:16:06.058Z,97275.28
2018-12-01T02:18:35.757Z,97270.17
2018-12-01T02:21:06.398Z,97273.83
2018-12-01T02:23:36.100Z,97267.38
2018-12-01T02:26:05.995Z,97261.88
2018-12-01T02:28:35.791Z,97264.07
2018-12-01T02:31:05.679Z,97272.17
2018-12-01T02:33:35.306Z,97261.59
2018-12-01T02:36:04.992Z,97263.63
2018-12-01T02:38:34.774Z,97259.72
2018-12-01T02:41:04.687Z,97260.08
2018-12-01T02:43:34.501Z,97258.78
2018-12-01T02:47:12.715Z,97251.69
2018-12-01T02:49:42.558Z,97261.84
2018-12-01T02:52:12.273Z,97257.06
2018-12-01T02:54:41.981Z,97260.25
2018-12-01T02:57:11.620Z,97260.16
2018-12-01T02:59:41.404Z,97261.95
2018-12-01T03:02:11.176Z,97265.24
2018-12-01T03:04:41.089Z,97267.61
2018-12-01T03:07:10.901Z,97271.91
2018-12-01T03:09:40.619Z,97272.16
2018-12-01T03:12:10.417Z,97265.92
2018-12-01T03:14:40.237Z,97268.56
2018-12-01T03:17:10.072Z,97267.22
2018-12-01T03:19:39.845Z,97265.34
2018-12-01T03:22:09.668Z,97265.66
2018-12-01T03:24:39.481Z,97262.36
2018-12-01T03:27:09.338Z,97261.98
2018-12-01T03:29:39.389Z,97261.80
2018-12-01T03:32:09.046Z,97263.29
2018-12-01T03:34:38.866Z,97266.27
2018-12-01T03:37:08.577Z,97263.08
2018-12-01T03:39:38.289Z,97265.91
2018-12-01T03:42:08.093Z,97257.83
2018-12-01T03:44:37.803Z,97264.71
2018-12-01T03:47:07.510Z,97262.53
2018-12-01T03:49:37.289Z,97265.84
2018-12-01T03:52:07.187Z,97265.13
2018-12-01T03:54:36.983Z,97264.37
2018-12-01T03:57:06.836Z,97269.20
2018-12-01T03:59:36.576Z,97264.78
2018-12-01T04:02:06.588Z,97265.77
2018-12-01T04:04:36.307Z,97265.77
2018-12-01T04:07:06.341Z,97267.00
2018-12-01T04:09:36.093Z,97271.20
2018-12-01T04:12:06.004Z,97275.70
2018-12-01T04:14:35.645Z,97270.54
2018-12-01T04:17:05.649Z,97271.64
2018-12-01T04:19:36.014Z,97274.61
2018-12-01T04:22:05.957Z,97266.61
2018-12-01T04:24:35.781Z,97275.45
2018-12-01T04:27:05.672Z,97274.45
2018-12-01T04:29:35.399Z,97277.06
2018-12-01T04:32:05.214Z,97273.50
2018-12-01T04:34:35.530Z,97278.39
2018-12-01T04:37:05.360Z,97280.09
2018-12-01T04:39:35.002Z,97284.41
2018-12-01T04:42:04.596Z,97287.71
2018-12-01T04:44:34.302Z,97279.70
2018-12-01T04:47:04.056Z,97279.83
2018-12-01T04:49:33.872Z,97278.75
2018-12-01T04:52:03.710Z,97281.67
2018-12-01T04:54:33.488Z,97283.59
2018-12-01T04:57:03.330Z,97290.40
2018-12-01T04:59:33.120Z,97292.77
2018-12-01T05:02:03.012Z,97289.20
2018-12-01T05:04:32.876Z,97287.11
2018-12-01T05:07:02.671Z,97288.19
2018-12-01T05:09:32.454Z,97291.88
2018-12-01T05:12:02.469Z,97304.10
2018-12-01T05:14:32.244Z,97304.48
2018-12-01T05:17:02.093Z,97303.08
2018-12-01T05:19:31.878Z,97306.97
2018-12-01T05:22:01.650Z,97304.81
2018-12-01T05:24:31.393Z,97303.32
2018-12-01T05:27:01.345Z,97305.36
2018-12-01T05:29:31.186Z,97300.82
2018-12-01T05:32:00.997Z,97298.48
2018-12-01T05:34:30.742Z,97292.95
2018-12-01T05:37:00.475Z,97303.59
2018-12-01T05:39:30.260Z,97300.80
2018-12-01T05:42:00.038Z,97297.73
2018-12-01T05:44:29.773Z,97299.81
2018-12-01T05:46:59.556Z,97302.63
2018-12-01T05:49:29.369Z,97304.10
2018-12-01T05:51:59.154Z,97297.28
2018-12-01T05:54:28.897Z,97302.91
2018-12-01T05:56:58.695Z,97306.83
2018-12-01T05:59:28.484Z,97305.61
2018-12-01T06:01:58.381Z,97312.08
2018-12-01T06:04:28.203Z,97308.22
2018-12-01T06:06:58.509Z,97311.91
2018-12-01T06:09:28.377Z,97317.56
2018-12-01T06:11:58.093Z,97314.22
2018-12-01T06:14:27.885Z,97321.94
2018-12-01T06:16:57.545Z,97331.97
2018-12-01T06:19:27.476Z,97328.26
2018-12-01T06:21:57.197Z,97334.28
2018-12-01T06:24:27.023Z,97334.04
2018-12-01T06:26:57.553Z,97336.82
2018-12-01T06:29:27.358Z,97334.84
2018-12-01T06:31:57.109Z,97333.95
2018-12-01T06:34:26.918Z,97339.45
2018-12-01T06:36:56.721Z,97353.31
2018-12-01T06:39:26.524Z,97348.13
2018-12-01T06:41:56.220Z,97350.20
2018-12-01T06:44:25.973Z,97352.50
2018-12-01T06:46:55.845Z,97355.70
2018-12-01T06:49:25.656Z,97358.23
2018-12-01T06:51:55.630Z,97350.92
2018-12-01T06:54:25.505Z,97352.39
2018-12-01T06:56:55.265Z,97355.67
2018-12-01T06:59:25.094Z,97358.84
2018-12-01T07:01:54.881Z,97363.59
2018-12-01T07:04:24.719Z,97362.34
2018-12-01T07:06:54.510Z,97373.30
2018-12-01T07:09:24.353Z,97369.74
2018-12-01T07:11:54.134Z,97370.81
2018-12-01T07:14:23.954Z,97377.66
2018-12-01T07:16:53.946Z,97376.16
2018-12-01T07:19:23.673Z,97377.02
2018-12-01T07:21:53.478Z,97378.69
2018-12-01T07:24:23.229Z,97372.19
2018-12-01T07:26:53.585Z,97375.24
2018-12-01T07:29:23.433Z,97369.81
2018-12-01T07:31:53.267Z,97376.90
2018-12-01T07:34:23.045Z,97382.23
2018-12-01T07:36:52.942Z,97379.55
2018-12-01T07:39:22.737Z,97375.15
2018-12-01T07:41:52.473Z,97378.79
2018-12-01T07:44:22.269Z,97377.67
2018-12-01T07:46:52.067Z,97377.39
2018-12-01T07:49:21.697Z,97380.09
2018-12-01T07:51:51.488Z,97377.23
2018-12-01T07:54:21.263Z,97389.70
2018-12-01T07:56:51.080Z,97394.44
2018-12-01T07:59:20.887Z,97387.83
2018-12-01T08:01:50.700Z,97383.91
2018-12-01T08:04:20.493Z,97393.52
2018-12-01T08:06:50.293Z,97395.45
2018-12-01T08:09:20.132Z,97406.44
2018-12-01T08:11:49.906Z,97402.01
2018-12-01T08:14:19.689Z,97399.43
2018-12-01T08:16:49.570Z,97399.03
2018-12-01T08:19:19.380Z,97398.03
2018-12-01T08:21:49.159Z,97403.41
2018-12-01T08:24:19.137Z,97404.36
2018-12-01T08:26:48.842Z,97406.09
2018-12-01T08:29:18.601Z,97409.96
2018-12-01T08:31:48.361Z,97408.33
2018-12-01T08:34:18.149Z,97414.58
2018-12-01T08:36:47.756Z,97412.56
2018-12-01T08:39:17.505Z,97416.70
2018-12-01T08:41:47.209Z,97411.33
2018-12-01T08:44:16.815Z,97415.05
2018-12-01T08:46:46.517Z,97418.23
2018-12-01T08:49:16.203Z,97414.87
2018-12-01T08:51:45.972Z,97416.72
2018-12-01T08:54:15.653Z,97423.05
2018-12-01T08:56:45.482Z,97429.30
2018-12-01T08:59:15.277Z,97434.78
2018-12-01T09:01:44.985Z,97428.64
2018-12-01T09:04:14.705Z,97430.66
2018-12-01T09:06:44.584Z,97436.91
2018-12-01T09:09:14.388Z,97436.25
2018-12-01T09:11:44.956Z,97441.27
2018-12-01T09:14:14.857Z,97439.63
2018-12-01T09:16:44.701Z,97445.48
2018-12-01T09:19:14.555Z,97443.77
2018-12-01T09:21:44.292Z,97441.45
2018-12-01T09:24:13.985Z,97436.59
2018-12-01T09:26:43.819Z,97432.34
2018-12-01T09:29:14.606Z,97433.20
2018-12-01T09:31:44.392Z,97429.76
2018-12-01T09:34:14.301Z,97428.63
2018-12-01T09:36:44.090Z,97429.22
2018-12-01T09:39:13.757Z,97430.34
2018-12-01T09:41:43.548Z,97427.29
2018-12-01T09:44:13.373Z,97428.45
2018-12-01T09:46:43.161Z,97426.82
2018-12-01T09:49:12.940Z,97430.45
2018-12-01T09:51:42.657Z,97424.32
2018-12-01T09:56:02.995Z,97413.09
2018-12-01T09:58:32.770Z,97415.89
2018-12-01T10:01:02.745Z,97412.44
2018-12-01T10:03:32.333Z,97415.42
2018-12-01T10:06:02.169Z,97416.87
2018-12-01T10:08:31.877Z,97413.20
2018-12-01T10:11:01.686Z,97409.58
2018-12-01T10:13:31.503Z,97414.95
2018-12-01T10:16:01.397Z,97409.77
2018-12-01T10:18:31.193Z,97409.50
2018-12-01T10:21:01.123Z,97408.41
2018-12-01T10:23:30.921Z,97410.34
2018-12-01T10:26:00.689Z,97402.61
2018-12-01T10:28:30.439Z,97399.52
2018-12-01T10:31:00.312Z,97398.28
2018-12-01T10:33:30.032Z,97405.00
2018-12-01T10:35:59.730Z,97404.61
2018-12-01T10:38:29.448Z,97396.84
2018-12-01T10:40:59.325Z,97398.17
2018-12-01T10:43:29.036Z,97384.85
2018-12-01T10:45:58.691Z,97383.80
2018-12-01T10:48:28.401Z,97386.78
2018-12-01T10:50:58.010Z,97388.52
2018-12-01T10:53:27.703Z,97385.44
2018-12-01T10:55:57.580Z,97385.44
2018-12-01T10:58:27.389Z,97383.44
2018-12-01T11:01:02.333Z,97375.96
2018-12-01T11:03:37.084Z,97380.46
2018-12-01T11:06:10.594Z,97375.09
2018-12-01T11:08:40.292Z,97374.62
2018-12-01T11:11:10.151Z,97377.78
2018-12-01T11:13:40.658Z,97372.52
2018-12-01T11:16:10.602Z,97376.72
2018-12-01T11:18:40.356Z,97381.12
2018-12-01T11:21:10.094Z,97378.83
2018-12-01T11:23:39.761Z,97384.02
2018-12-01T11:26:09.589Z,97382.67
2018-12-01T11:28:39.149Z,97378.46
2018-12-01T11:31:08.904Z,97377.02
2018-12-01T11:33:38.496Z,97374.69
2018-12-01T11:36:08.216Z,97381.80
2018-12-01T11:38:37.882Z,97378.83
2018-12-01T11:41:07.592Z,97375.20
2018-12-01T11:43:37.321Z,97379.41
2018-12-01T11:46:07.113Z,97378.06
2018-12-01T11:48:36.788Z,97385.17
2018-12-01T11:51:06.773Z,97381.80
2018-12-01T11:53:36.511Z,97375.67
2018-12-01T11:56:06.497Z,97377.52
2018-12-01T11:58:36.641Z,97370.80
2018-12-01T12:01:06.794Z,97369.83
2018-12-01T12:03:36.508Z,97369.46
2018-12-01T12:06:06.418Z,97373.48
2018-12-01T12:08:36.490Z,97371.96
2018-12-01T12:11:06.205Z,97374.25
2018-12-01T12:13:35.889Z,97370.51
2018-12-01T12:16:06.045Z,97366.66
2018-12-01T12:18:35.897Z,97370.22
2018-12-01T12:21:05.806Z,97378.09
2018-12-01T12:23:35.569Z,97370.91
2018-12-01T12:26:05.490Z,97372.03
2018-12-01T12:28:35.166Z,97375.30
2018-12-01T12:31:04.981Z,97367.75
2018-12-01T12:33:34.692Z,97363.80
2018-12-01T12:36:04.294Z,97359.41
2018-12-01T12:38:34.025Z,97361.61
2018-12-01T12:41:03.783Z,97364.00
2018-12-01T12:43:33.580Z,97368.03
2018-12-01T12:46:03.373Z,97375.22
2018-12-01T12:48:33.173Z,97375.32
2018-12-01T12:51:02.961Z,97378.95
2018-12-01T12:53:32.694Z,97376.38
2018-12-01T12:56:02.549Z,97375.61
2018-12-01T12:58:32.350Z,97377.92
2018-12-01T13:01:02.070Z,97377.05
2018-12-01T13:03:31.879Z,97380.21
2018-12-01T13:06:01.697Z,97387.03
2018-12-01T13:08:31.464Z,97379.92
2018-12-01T13:11:01.409Z,97378.58
2018-12-01T13:13:31.184Z,97373.71
2018-12-01T13:16:01.013Z,97374.29
2018-12-01T13:18:30.809Z,97370.73
2018-12-01T13:21:00.592Z,97373.02
2018-12-01T13:23:30.307Z,97369.57
2018-12-01T13:26:00.081Z,97370.14
2018-12-01T13:28:29.893Z,97371.48
2018-12-01T13:31:00.630Z,97367.46
2018-12-01T13:33:30.436Z,97366.44
2018-12-01T13:36:00.243Z,97370.06
2018-12-01T13:38:30.022Z,97377.17
2018-12-01T13:40:59.960Z,97376.77
2018-12-01T13:43:29.712Z,97374.19
2018-12-01T13:45:59.477Z,97371.03
2018-12-01T13:48:29.229Z,97372.08
2018-12-01T13:50:58.836Z,97376.48
2018-12-01T13:53:28.575Z,97367.59
2018-12-01T13:55:58.277Z,97373.13
2018-12-01T13:58:28.108Z,97386.55
2018-12-01T14:00:57.753Z,97392.48
2018-12-01T14:03:27.505Z,97387.59
2018-12-01T14:05:57.167Z,97394.30
2018-12-01T14:08:26.864Z,97400.64
2018-12-01T14:10:56.616Z,97406.95
2018-12-01T14:13:26.377Z,97407.82
2018-12-01T14:15:56.166Z,97410.97
2018-12-01T14:18:25.982Z,97411.55
2018-12-01T14:20:55.761Z,97416.45
2018-12-01T14:23:25.489Z,97417.02
2018-12-01T14:25:55.166Z,97420.67
2018-12-01T14:28:24.787Z,97422.12
2018-12-01T14:30:54.968Z,97425.17
2018-12-01T14:33:24.845Z,97427.48
2018-12-01T14:35:55.259Z,97428.53
2018-12-01T14:38:24.849Z,97430.34
2018-12-01T14:40:54.577Z,97426.72
2018-12-01T14:43:24.358Z,97427.66
2018-12-01T14:45:54.128Z,97432.66
2018-12-01T14:48:24.097Z,97434.47
2018-12-01T14:50:54.171Z,97435.34
2018-12-01T14:53:23.999Z,97431.38
2018-12-01T14:55:53.758Z,97434.16
2018-12-01T14:58:23.593Z,97436.84
2018-12-01T15:00:53.276Z,97443.16
2018-12-01T15:03:23.114Z,97453.02
2018-12-01T15:05:52.874Z,97457.91
2018-12-01T15:08:22.602Z,97459.31
2018-12-01T15:10:52.457Z,97464.78
2018-12-01T15:13:22.169Z,97464.31
2018-12-01T15:15:51.985Z,97461.23
2018-12-01T15:18:21.792Z,97462.57
2018-12-01T15:20:51.598Z,97460.45
2018-12-01T15:23:21.291Z,97455.09
2018-12-01T15:25:51.025Z,97464.58
2018-12-01T15:28:20.883Z,97473.97
2018-12-01T15:30:50.669Z,97476.66
2018-12-01T15:33:20.416Z,97479.34
2018-12-01T15:35:50.128Z,97488.72
2018-12-01T15:38:19.964Z,97489.70
2018-12-01T15:40:51.420Z,97496.00
2018-12-01T15:43:21.170Z,97494.29
2018-12-01T15:45:50.876Z,97498.31
2018-12-01T15:48:20.605Z,97496.56
2018-12-01T15:50:50.295Z,97501.46
2018-12-01T15:53:20.024Z,97507.39
2018-12-01T15:55:49.877Z,97518.59
2018-12-01T15:58:19.594Z,97519.56
2018-12-01T16:00:49.359Z,97516.11
2018-12-01T16:03:19.212Z,97512.86
2018-12-01T16:05:48.921Z,97520.40
2018-12-01T16:08:18.708Z,97511.21
2018-12-01T16:10:48.540Z,97517.05
2018-12-01T16:13:19.960Z,97522.88
2018-12-01T16:16:09.525Z,97520.20
2018-12-01T16:18:39.274Z,97524.31
2018-12-01T16:21:08.996Z,97519.92
2018-12-01T16:23:38.621Z,97521.83
2018-12-01T16:26:08.365Z,97529.78
2018-12-01T16:28:38.108Z,97530.72
2018-12-01T16:31:07.853Z,97540.10
2018-12-01T16:33:37.535Z,97537.83
2018-12-01T16:36:07.648Z,97542.52
2018-12-01T16:38:37.657Z,97538.55
2018-12-01T16:41:15.322Z,97532.35
2018-12-01T16:43:45.162Z,97534.94
2018-12-01T16:46:14.841Z,97540.77
2018-12-01T16:48:44.686Z,97538.08
2018-12-01T16:51:14.468Z,97539.05
2018-12-01T16:53:44.297Z,97538.65
2018-12-01T16:56:14.057Z,97543.14
2018-12-01T16:58:43.790Z,97533.48
2018-12-01T17:01:13.610Z,97534.82
2018-12-01T17:03:43.433Z,97545.92
2018-12-01T17:06:16.110Z,97552.63
2018-12-01T17:08:45.905Z,97549.07
2018-12-01T17:11:15.697Z,97549.17
2018-12-01T17:13:45.575Z,97539.87
2018-12-01T17:16:15.357Z,97544.77
2018-12-01T17:18:45.296Z,97539.87
2018-12-01T17:21:15.120Z,97544.47
2018-12-01T17:23:44.880Z,97541.69
2018-12-01T17:26:14.697Z,97542.66
2018-12-01T17:28:44.473Z,97538.70
2018-12-01T17:31:14.176Z,97543.12
2018-12-01T17:33:44.688Z,97536.42
2018-12-01T17:36:14.449Z,97536.11
2018-12-01T17:38:44.193Z,97535.74
2018-12-01T17:41:17.897Z,97536.58
2018-12-01T17:43:51.292Z,97531.22
2018-12-01T17:46:21.405Z,97528.17
2018-12-01T17:48:51.415Z,97535.44
2018-12-01T17:51:21.177Z,97538.42
2018-12-01T17:53:52.837Z,97540.70
2018-12-01T17:56:22.577Z,97536.78
2018-12-01T17:58:52.410Z,97535.91
2018-12-01T18:01:22.226Z,97541.27
2018-12-01T18:03:52.041Z,97533.69
2018-12-01T18:06:21.825Z,97534.25
2018-12-01T18:08:51.662Z,97532.45
2018-12-01T18:11:21.449Z,97536.94
2018-12-01T18:13:51.277Z,97538.78
2018-12-01T18:16:20.929Z,97530.73
2018-12-01T18:18:50.653Z,97535.59
2018-12-01T18:21:20.417Z,97545.48
2018-12-01T18:23:50.228Z,97545.95
2018-12-01T18:26:19.937Z,97546.41
2018-12-01T18:28:50.882Z,97538.94
2018-12-01T18:31:23.245Z,97536.72
2018-12-01T18:34:05.850Z,97539.91
2018-12-01T18:36:35.736Z,97538.16
2018-12-01T18:39:08.752Z,97540.38
2018-12-01T18:41:38.369Z,97539.91
2018-12-01T18:44:08.125Z,97535.95
2018-12-01T18:46:37.981Z,97542.65
2018-12-01T18:49:07.789Z,97541.81
2018-12-01T18:51:37.529Z,97552.53
2018-12-01T18:54:07.374Z,97553.87
2018-12-01T18:56:37.209Z,97548.20
2018-12-01T18:59:07.300Z,97550.41
2018-12-01T19:01:37.113Z,97561.14
2018-12-01T19:04:06.897Z,97555.27
2018-12-01T19:06:36.609Z,97550.11
2018-12-01T19:09:08.015Z,97547.80
2018-12-01T19:11:37.789Z,97550.11
2018-12-01T19:14:07.846Z,97545.11
2018-12-01T19:16:37.655Z,97535.83
2018-12-01T19:19:07.437Z,97537.27
2018-12-01T19:21:37.269Z,97537.17
2018-12-01T19:24:06.986Z,97528.25
2018-12-01T19:26:36.768Z,97531.44
2018-12-01T19:29:07.228Z,97524.33
2018-12-01T19:31:36.969Z,97527.98
2018-12-01T19:34:07.256Z,97526.64
2018-12-01T19:36:36.888Z,97521.28
2018-12-01T19:39:08.242Z,97524.33
2018-12-01T19:41:37.965Z,97519.94
2018-12-01T19:44:08.294Z,97524.43
2018-12-01T19:46:37.975Z,97526.64
2018-12-01T19:49:07.833Z,97526.23
2018-12-01T19:51:37.620Z,97524.52
2018-12-01T19:54:07.716Z,97521.44
2018-12-01T19:56:37.958Z,97523.65
2018-12-01T20:04:04.683Z,97522.41
2018-12-01T20:06:34.505Z,97518.45
2018-12-01T20:09:04.465Z,97521.12
2018-12-01T20:11:34.228Z,97514.43
2018-12-01T20:14:04.749Z,97510.41
2018-12-01T20:16:37.767Z,97502.00
2018-12-01T20:19:08.091Z,97509.57
2018-12-01T20:21:37.831Z,97508.60
2018-12-01T20:24:08.405Z,97508.30
2018-12-01T20:26:39.089Z,97506.95
2018-12-01T20:29:08.942Z,97507.83
2018-12-01T20:31:38.659Z,97508.80
2018-12-01T20:34:08.671Z,97509.73
2018-12-01T20:36:45.442Z,97511.47
2018-12-01T20:39:18.393Z,97500.34
2018-12-01T20:41:48.182Z,97503.03
2018-12-01T20:44:17.920Z,97495.45
2018-12-01T20:46:47.519Z,97494.12
2018-12-01T20:49:17.321Z,97491.94
2018-12-01T20:51:46.924Z,97487.42
2018-12-01T20:54:27.281Z,97491.06
2018-12-01T20:57:00.865Z,97489.32
2018-12-01T20:59:30.890Z,97489.42
2018-12-01T21:02:00.933Z,97489.73
2018-12-01T21:04:30.741Z,97492.50
2018-12-01T21:07:01.376Z,97488.48
2018-12-01T21:09:32.139Z,97483.13
2018-12-01T21:12:02.300Z,97482.25
2018-12-01T21:14:32.076Z,97478.23
2018-12-01T21:17:01.886Z,97477.45
2018-12-01T21:19:31.737Z,97479.67
2018-12-01T21:22:01.433Z,97474.38
2018-12-01T21:24:31.200Z,97475.34
2018-12-01T21:27:01.021Z,97474.77
2018-12-01T21:29:30.772Z,97479.36
2018-12-01T21:32:00.510Z,97475.24
2018-12-01T21:34:30.253Z,97474.88
2018-12-01T21:37:00.063Z,97478.89
2018-12-01T21:39:29.873Z,97478.89
2018-12-01T21:41:59.573Z,97473.13
2018-12-01T21:44:29.397Z,97473.13
2018-12-01T21:46:59.099Z,97476.77
2018-12-01T21:49:28.886Z,97471.88
2018-12-01T21:51:58.617Z,97468.73
2018-12-01T21:54:28.432Z,97462.97
2018-12-01T21:56:58.221Z,97461.63
2018-12-01T21:59:27.958Z,97463.75
2018-12-01T22:01:57.665Z,97465.49
2018-12-01T22:04:27.476Z,97457.36
2018-12-01T22:06:57.262Z,97458.02
2018-12-01T22:09:27.087Z,97470.67
2018-12-01T22:11:56.868Z,97458.58
2018-12-01T22:14:26.704Z,97464.31
2018-12-01T22:16:56.705Z,97469.11
2018-12-01T22:19:26.539Z,97464.06
2018-12-01T22:21:56.322Z,97462.05
2018-12-01T22:24:26.159Z,97456.13
2018-12-01T22:26:55.948Z,97451.29
2018-12-01T22:29:25.817Z,97454.48
2018-12-01T22:31:55.674Z,97461.86
2018-12-01T22:34:26.593Z,97451.45
2018-12-01T22:36:56.329Z,97454.39
2018-12-01T22:39:25.229Z,97453.38
2018-12-01T22:41:55.115Z,97450.66
2018-12-01T22:44:24.797Z,97447.31
2018-12-01T22:46:54.641Z,97447.23
2018-12-01T22:49:24.421Z,97444.05
2018-12-01T22:51:53.988Z,97447.02
2018-12-01T22:54:23.761Z,97431.44
2018-12-01T22:56:53.433Z,97435.45
2018-12-01T22:59:23.070Z,97442.00
2018-12-01T23:01:53.369Z,97443.49
2018-12-01T23:04:23.077Z,97435.82
2018-12-01T23:06:52.830Z,97434.21
2018-12-01T23:09:22.663Z,97429.44
2018-12-01T23:11:52.426Z,97426.09
2018-12-01T23:14:22.218Z,97425.41
2018-12-01T23:16:51.992Z,97429.89
2018-12-01T23:19:21.805Z,97431.19
2018-12-01T23:21:51.471Z,97420.16
2018-12-01T23:24:21.306Z,97412.02
2018-12-01T23:26:51.030Z,97407.88
2018-12-01T23:29:20.905Z,97406.77
2018-12-01T23:31:50.652Z,97408.25
2018-12-01T23:34:20.365Z,97397.39
2018-12-01T23:36:50.172Z,97391.06
2018-12-01T23:39:19.885Z,97380.78
2018-12-01T23:41:49.662Z,97387.90
2018-12-01T23:44:32.202Z,97384.94
2018-12-01T23:47:01.945Z,97379.87
2018-12-01T23:49:31.649Z,97373.33
2018-12-01T23:52:01.468Z,97379.36
2018-12-01T23:54:31.244Z,97373.52
2018-12-01T23:57:01.040Z,97371.56
2018-12-01T23:59:30.665Z,97365.70
